Time;durP1;ratioP1;P1;durP2;ratioP2;P2;SDS_P1;SDS_P2;PMS_P1;PMS_P2;Temp;Humidity;BMP_temperature;BMP_pressure;BME280_temperature;BME280_humidity;BME280_pressure;Samples;Min_cycle;Max_cycle;Signal;HPM_P1;HPM_P2
2021/10/31 00:01:09;;;;;;;11.77;6.80;;;;;;;;;;4917711;29;20099;-37
2021/10/31 00:03:35;;;;;;;11.80;7.70;;;;;;;;;;4917870;29;20040;-37
2021/10/31 00:06:01;;;;;;;15.40;8.70;;;;;;;;;;4917345;29;20055;-37
2021/10/31 00:08:27;;;;;;;15.23;8.55;;;;;;;;;;4918039;29;20040;-37
2021/10/31 00:10:53;;;;;;;17.10;8.43;;;;;;;;;;4917582;29;20518;-37
2021/10/31 00:13:18;;;;;;;14.05;8.63;;;;;;;;;;4917750;29;20036;-37
2021/10/31 00:15:44;;;;;;;12.07;8.40;;;;;;;;;;4917499;29;20023;-37
2021/10/31 00:18:10;;;;;;;15.05;8.52;;;;;;;;;;4917280;29;20028;-37
2021/10/31 00:20:35;;;;;;;14.75;7.72;;;;;;;;;;4917418;29;20035;-39
2021/10/31 00:23:01;;;;;;;16.63;8.30;;;;;;;;;;4917270;29;20044;-37
2021/10/31 00:25:26;;;;;;;14.98;8.02;;;;;;;;;;4917456;29;20235;-37
2021/10/31 00:27:52;;;;;;;19.75;9.88;;;;;;;;;;4917347;29;20032;-37
2021/10/31 00:30:18;;;;;;;17.75;8.50;;;;;;;;;;4915947;29;20475;-37
2021/10/31 00:32:43;;;;;;;18.38;9.38;;;;;;;;;;4915959;29;20457;-37
2021/10/31 00:35:09;;;;;;;15.52;8.68;;;;;;;;;;4916299;29;20123;-37
2021/10/31 00:37:34;;;;;;;15.43;7.57;;;;;;;;;;4917462;29;20488;-37
2021/10/31 00:40:00;;;;;;;17.95;9.50;;;;;;;;;;4917047;29;20479;-37
2021/10/31 00:42:25;;;;;;;11.85;7.97;;;;;;;;;;4917026;29;20046;-37
2021/10/31 00:44:51;;;;;;;19.85;9.35;;;;;;;;;;4917021;29;20184;-37
2021/10/31 00:47:16;;;;;;;17.35;9.52;;;;;;;;;;4916862;29;20077;-37
2021/10/31 00:49:41;;;;;;;19.95;10.45;;;;;;;;;;4917102;29;20035;-37
2021/10/31 00:52:09;;;;;;;19.10;10.57;;;;;;;;;;4916862;29;20063;-37
2021/10/31 00:54:34;;;;;;;16.50;8.23;;;;;;;;;;4916746;29;20044;-37
2021/10/31 00:57:01;;;;;;;12.95;8.32;;;;;;;;;;4916684;29;20064;-38
2021/10/31 00:59:26;;;;;;;16.35;8.75;;;;;;;;;;4916757;29;20028;-37
2021/10/31 01:01:53;;;;;;;21.35;9.52;;;;;;;;;;4916632;29;20107;-37
2021/10/31 01:04:23;;;;;;;18.02;9.80;;;;;;;;;;4915409;29;20032;-37
2021/10/31 01:06:49;;;;;;;15.98;8.30;;;;;;;;;;4929224;29;20062;-37
2021/10/31 01:09:14;;;;;;;18.48;8.23;;;;;;;;;;4935491;29;20395;-37
2021/10/31 01:12:06;;;;;;;15.70;7.72;;;;;;;;;;4934300;29;20086;-37
2021/10/31 01:14:39;;;;;;;16.35;7.80;;;;;;;;;;4915570;29;20044;-37
2021/10/31 01:17:19;;;;;;;18.08;8.68;;;;;;;;;;4935208;29;20111;-37
2021/10/31 01:20:05;;;;;;;15.65;8.80;;;;;;;;;;4935699;29;20035;-37
2021/10/31 01:22:41;;;;;;;13.52;8.57;;;;;;;;;;4935259;29;20046;-37
2021/10/31 01:25:32;;;;;;;16.45;8.23;;;;;;;;;;4935167;29;20051;-37
2021/10/31 01:28:30;;;;;;;15.70;8.55;;;;;;;;;;4932247;29;20048;-37
2021/10/31 01:31:14;;;;;;;15.60;8.15;;;;;;;;;;4902801;29;20087;-37
2021/10/31 01:33:40;;;;;;;16.30;7.82;;;;;;;;;;4935169;29;20032;-37
2021/10/31 01:36:24;;;;;;;18.48;9.95;;;;;;;;;;4934970;29;20019;-37
2021/10/31 01:39:10;;;;;;;18.08;9.27;;;;;;;;;;4934956;29;20875;-37
2021/10/31 01:41:44;;;;;;;14.07;8.32;;;;;;;;;;4905107;29;20070;-37
2021/10/31 01:44:22;;;;;;;16.73;9.13;;;;;;;;;;4934830;29;20043;-37
2021/10/31 01:46:55;;;;;;;16.02;9.02;;;;;;;;;;4935038;29;20215;-37
2021/10/31 01:49:20;;;;;;;14.48;9.27;;;;;;;;;;4934848;29;20028;-37
2021/10/31 01:51:50;;;;;;;20.98;8.52;;;;;;;;;;4934723;29;20502;-37
2021/10/31 01:54:21;;;;;;;21.15;10.43;;;;;;;;;;4934933;29;20027;-37
2021/10/31 01:56:50;;;;;;;16.33;8.20;;;;;;;;;;4934668;29;20032;-37
2021/10/31 01:59:27;;;;;;;12.38;7.75;;;;;;;;;;4934529;29;20015;-37
2021/10/31 02:01:54;;;;;;;14.30;7.28;;;;;;;;;;4934610;29;20038;-37
2021/10/31 02:04:22;;;;;;;20.80;9.20;;;;;;;;;;4934532;29;20023;-38
2021/10/31 02:06:50;;;;;;;13.93;8.25;;;;;;;;;;4934208;29;20055;-37
2021/10/31 02:09:17;;;;;;;14.38;8.63;;;;;;;;;;4934485;29;20043;-37
2021/10/31 02:11:44;;;;;;;12.82;8.10;;;;;;;;;;4934765;29;20051;-37
2021/10/31 02:14:10;;;;;;;12.68;7.75;;;;;;;;;;4934331;29;20015;-37
2021/10/31 02:16:36;;;;;;;13.57;8.48;;;;;;;;;;4934405;29;20047;-37
2021/10/31 02:19:04;;;;;;;16.27;7.93;;;;;;;;;;4917205;29;20030;-37
2021/10/31 02:21:31;;;;;;;17.70;9.23;;;;;;;;;;4934391;29;20032;-37
2021/10/31 02:23:59;;;;;;;14.93;8.35;;;;;;;;;;4934293;29;20035;-38
2021/10/31 02:26:24;;;;;;;18.20;7.80;;;;;;;;;;4934314;29;20487;-37
2021/10/31 02:28:57;;;;;;;17.70;8.57;;;;;;;;;;4934772;29;20043;-37
2021/10/31 02:31:23;;;;;;;14.45;7.93;;;;;;;;;;4934431;29;20038;-37
2021/10/31 02:33:48;;;;;;;14.40;8.80;;;;;;;;;;4934393;29;20050;-37
2021/10/31 02:36:14;;;;;;;14.43;8.18;;;;;;;;;;4934185;29;20133;-37
2021/10/31 02:38:39;;;;;;;15.70;8.80;;;;;;;;;;4934295;29;20034;-37
2021/10/31 02:41:05;;;;;;;14.57;8.25;;;;;;;;;;4934159;29;20032;-37
2021/10/31 02:43:30;;;;;;;14.45;8.25;;;;;;;;;;4934520;29;20020;-37
2021/10/31 02:45:56;;;;;;;15.23;8.43;;;;;;;;;;4934096;29;20148;-37
2021/10/31 02:48:22;;;;;;;14.23;7.82;;;;;;;;;;4934108;29;20075;-41
2021/10/31 02:50:47;;;;;;;12.15;7.32;;;;;;;;;;4934240;29;20046;-37
2021/10/31 02:53:24;;;;;;;13.02;8.15;;;;;;;;;;4934142;29;20028;-38
2021/10/31 02:56:02;;;;;;;12.25;7.65;;;;;;;;;;4934378;29;20423;-37
2021/10/31 02:58:33;;;;;;;12.00;6.45;;;;;;;;;;4935755;29;20035;-37
2021/10/31 03:01:00;;;;;;;16.20;8.15;;;;;;;;;;4938056;29;20114;-37
2021/10/31 03:03:28;;;;;;;15.73;7.68;;;;;;;;;;4938322;29;20024;-37
2021/10/31 03:05:57;;;;;;;10.63;6.57;;;;;;;;;;4920672;29;20055;-37
2021/10/31 03:08:23;;;;;;;16.98;8.10;;;;;;;;;;4937954;29;20400;-37
2021/10/31 03:10:49;;;;;;;14.52;7.07;;;;;;;;;;4938058;29;20495;-37
2021/10/31 03:13:14;;;;;;;13.65;8.05;;;;;;;;;;4937764;29;20063;-37
2021/10/31 03:15:40;;;;;;;21.15;9.32;;;;;;;;;;4937834;29;20430;-37
2021/10/31 03:18:06;;;;;;;15.82;7.65;;;;;;;;;;4937759;29;20027;-37
2021/10/31 03:20:31;;;;;;;17.30;8.32;;;;;;;;;;4937656;29;20036;-37
2021/10/31 03:22:57;;;;;;;14.93;8.73;;;;;;;;;;4937660;29;20027;-36
2021/10/31 03:25:22;;;;;;;17.10;7.60;;;;;;;;;;4937591;29;20491;-36
2021/10/31 03:27:47;;;;;;;13.57;8.82;;;;;;;;;;4937584;29;20114;-37
2021/10/31 03:30:13;;;;;;;17.05;9.05;;;;;;;;;;4937696;29;20082;-37
2021/10/31 03:32:39;;;;;;;15.68;7.95;;;;;;;;;;4937440;29;20494;-37
2021/10/31 03:35:04;;;;;;;13.95;8.35;;;;;;;;;;4937425;29;20036;-37
2021/10/31 03:37:30;;;;;;;15.18;8.80;;;;;;;;;;4920396;29;20030;-37
2021/10/31 03:39:55;;;;;;;18.05;8.85;;;;;;;;;;4937719;29;20110;-37
2021/10/31 03:42:22;;;;;;;16.10;8.80;;;;;;;;;;4937276;29;20048;-37
2021/10/31 03:44:48;;;;;;;13.57;8.57;;;;;;;;;;4937521;29;20031;-37
2021/10/31 03:47:15;;;;;;;13.68;7.78;;;;;;;;;;4937154;29;20115;-37
2021/10/31 03:49:40;;;;;;;20.45;8.52;;;;;;;;;;4937193;29;20435;-37
2021/10/31 03:52:06;;;;;;;14.25;7.53;;;;;;;;;;4937015;29;20058;-38
2021/10/31 03:54:31;;;;;;;16.25;8.43;;;;;;;;;;4937250;29;20042;-37
2021/10/31 03:56:57;;;;;;;15.45;9.15;;;;;;;;;;4937199;29;20356;-37
2021/10/31 03:59:22;;;;;;;14.52;8.80;;;;;;;;;;4936894;29;20035;-38
2021/10/31 04:01:48;;;;;;;16.45;7.80;;;;;;;;;;4919743;29;20031;-37
2021/10/31 04:04:13;;;;;;;17.25;8.50;;;;;;;;;;4936849;29;20036;-37
2021/10/31 04:06:39;;;;;;;14.65;8.10;;;;;;;;;;4924943;29;20063;-36
2021/10/31 04:09:05;;;;;;;15.13;7.75;;;;;;;;;;4917430;29;20119;-37
2021/10/31 04:11:30;;;;;;;17.17;9.65;;;;;;;;;;4916936;29;20024;-37
2021/10/31 04:13:56;;;;;;;14.90;7.72;;;;;;;;;;4917757;29;20086;-37
2021/10/31 04:16:21;;;;;;;14.82;8.07;;;;;;;;;;4916468;29;20597;-36
2021/10/31 04:18:47;;;;;;;18.38;9.90;;;;;;;;;;4917805;29;20759;-37
2021/10/31 04:21:13;;;;;;;16.13;8.30;;;;;;;;;;4917523;29;20020;-37
2021/10/31 04:23:38;;;;;;;19.85;9.07;;;;;;;;;;4917596;29;20111;-37
2021/10/31 04:26:04;;;;;;;16.02;8.95;;;;;;;;;;4917611;29;20040;-37
2021/10/31 04:28:30;;;;;;;15.18;9.10;;;;;;;;;;4917442;29;20024;-37
2021/10/31 04:30:55;;;;;;;16.23;9.25;;;;;;;;;;4917460;29;20024;-36
2021/10/31 04:33:21;;;;;;;15.75;8.68;;;;;;;;;;4917208;29;20040;-37
2021/10/31 04:35:46;;;;;;;16.25;8.90;;;;;;;;;;4916021;29;20028;-37
2021/10/31 04:38:21;;;;;;;19.20;8.07;;;;;;;;;;4917182;29;20032;-37
2021/10/31 04:40:46;;;;;;;17.60;9.20;;;;;;;;;;4917495;29;20036;-40
2021/10/31 04:43:12;;;;;;;21.63;8.73;;;;;;;;;;4917074;29;20020;-37
2021/10/31 04:45:39;;;;;;;16.45;7.80;;;;;;;;;;4917039;29;20496;-37
2021/10/31 04:48:05;;;;;;;14.05;8.88;;;;;;;;;;4917311;29;20030;-37
2021/10/31 04:50:30;;;;;;;18.40;9.48;;;;;;;;;;4917068;29;20032;-37
2021/10/31 04:52:56;;;;;;;16.20;8.85;;;;;;;;;;4917126;29;20535;-37
2021/10/31 04:55:22;;;;;;;14.38;8.40;;;;;;;;;;4916953;29;20105;-37
2021/10/31 04:57:47;;;;;;;13.68;9.07;;;;;;;;;;4917156;29;20036;-37
2021/10/31 05:00:13;;;;;;;16.00;8.52;;;;;;;;;;4915630;29;20081;-37
2021/10/31 05:02:39;;;;;;;16.75;8.82;;;;;;;;;;4917183;29;20108;-37
2021/10/31 05:05:04;;;;;;;14.32;7.65;;;;;;;;;;4916693;29;20035;-37
2021/10/31 05:07:30;;;;;;;18.88;8.48;;;;;;;;;;4916632;29;20064;-38
2021/10/31 05:09:56;;;;;;;14.88;8.35;;;;;;;;;;4915468;29;20111;-37
2021/10/31 05:12:25;;;;;;;20.70;8.00;;;;;;;;;;4916876;29;20453;-37
2021/10/31 05:14:54;;;;;;;13.77;7.50;;;;;;;;;;4916844;29;20379;-37
2021/10/31 05:17:19;;;;;;;16.38;9.07;;;;;;;;;;4916523;29;20412;-36
2021/10/31 05:19:45;;;;;;;16.33;9.30;;;;;;;;;;4916572;29;20044;-37
2021/10/31 05:22:11;;;;;;;15.80;8.27;;;;;;;;;;4916179;29;20024;-37
2021/10/31 05:24:36;;;;;;;15.52;8.63;;;;;;;;;;4916702;29;20107;-37
2021/10/31 05:27:02;;;;;;;15.15;9.20;;;;;;;;;;4916303;29;20047;-37
2021/10/31 05:29:27;;;;;;;16.63;9.15;;;;;;;;;;4916411;29;20032;-37
2021/10/31 05:31:53;;;;;;;14.40;8.55;;;;;;;;;;4915291;29;20387;-37
2021/10/31 05:34:18;;;;;;;15.60;8.43;;;;;;;;;;4916354;29;20387;-37
2021/10/31 05:36:44;;;;;;;16.45;8.32;;;;;;;;;;4916043;29;20095;-37
2021/10/31 05:39:09;;;;;;;16.15;8.25;;;;;;;;;;4915920;29;20028;-36
2021/10/31 05:41:35;;;;;;;16.45;8.90;;;;;;;;;;4916027;29;20032;-37
2021/10/31 05:44:00;;;;;;;15.45;8.05;;;;;;;;;;4916228;29;20032;-37
2021/10/31 05:46:27;;;;;;;16.83;8.13;;;;;;;;;;4914344;29;20476;-36
2021/10/31 05:48:52;;;;;;;13.05;7.82;;;;;;;;;;4915844;29;20076;-42
2021/10/31 05:51:18;;;;;;;13.05;7.63;;;;;;;;;;4916008;29;20048;-37
2021/10/31 05:53:44;;;;;;;20.60;10.00;;;;;;;;;;4915736;29;20504;-37
2021/10/31 05:56:11;;;;;;;19.90;9.18;;;;;;;;;;4915672;29;20027;-38
2021/10/31 05:58:37;;;;;;;14.77;7.90;;;;;;;;;;4915695;29;20039;-37
2021/10/31 06:01:02;;;;;;;14.50;8.82;;;;;;;;;;4915533;29;20015;-37
2021/10/31 06:03:29;;;;;;;15.65;7.80;;;;;;;;;;4915612;29;20032;-37
2021/10/31 06:05:54;;;;;;;17.63;9.63;;;;;;;;;;4915299;29;20572;-40
2021/10/31 06:08:20;;;;;;;18.38;8.35;;;;;;;;;;4915647;29;20036;-37
2021/10/31 06:10:47;;;;;;;17.58;8.40;;;;;;;;;;4915532;29;20036;-38
2021/10/31 06:13:12;;;;;;;26.15;10.98;;;;;;;;;;4915677;29;20396;-37
2021/10/31 06:15:38;;;;;;;28.20;12.02;;;;;;;;;;4915310;29;20028;-37
2021/10/31 06:18:04;;;;;;;25.85;10.93;;;;;;;;;;4915344;29;20043;-37
2021/10/31 06:20:29;;;;;;;35.30;10.88;;;;;;;;;;4915415;29;20055;-38
2021/10/31 06:22:55;;;;;;;21.92;10.55;;;;;;;;;;4915278;29;20081;-37
2021/10/31 06:25:20;;;;;;;24.55;10.00;;;;;;;;;;4915062;29;20528;-37
2021/10/31 06:27:46;;;;;;;24.65;11.77;;;;;;;;;;4915329;29;20044;-37
2021/10/31 06:30:11;;;;;;;23.95;9.27;;;;;;;;;;4915332;29;20452;-37
2021/10/31 06:32:37;;;;;;;22.25;10.35;;;;;;;;;;4915003;29;20123;-36
2021/10/31 06:35:03;;;;;;;22.42;8.82;;;;;;;;;;4915419;29;20099;-37
2021/10/31 06:37:28;;;;;;;21.55;10.15;;;;;;;;;;4915185;29;20039;-37
2021/10/31 06:39:54;;;;;;;18.23;9.07;;;;;;;;;;4915134;29;20024;-38
2021/10/31 06:42:20;;;;;;;14.15;8.18;;;;;;;;;;4914949;29;20051;-37
2021/10/31 06:44:45;;;;;;;17.63;8.45;;;;;;;;;;4914991;29;20020;-37
2021/10/31 06:47:11;;;;;;;16.58;9.05;;;;;;;;;;4914931;29;20087;-37
2021/10/31 06:49:41;;;;;;;23.02;10.23;;;;;;;;;;4914903;29;20020;-37
2021/10/31 06:52:07;;;;;;;18.48;9.48;;;;;;;;;;4914902;29;20544;-37
2021/10/31 06:54:32;;;;;;;20.42;9.65;;;;;;;;;;4914960;29;20103;-37
2021/10/31 06:56:58;;;;;;;24.50;10.20;;;;;;;;;;4914935;29;20032;-37
2021/10/31 06:59:23;;;;;;;24.65;9.15;;;;;;;;;;4914817;29;20459;-37
2021/10/31 07:01:49;;;;;;;22.05;10.30;;;;;;;;;;4914947;29;20067;-37
2021/10/31 07:04:14;;;;;;;30.98;11.15;;;;;;;;;;4914839;29;20021;-36
2021/10/31 07:06:40;;;;;;;20.17;10.02;;;;;;;;;;4914787;29;20052;-37
2021/10/31 07:09:06;;;;;;;20.98;10.40;;;;;;;;;;4914838;29;20045;-37
2021/10/31 07:11:31;;;;;;;22.45;10.32;;;;;;;;;;4915180;29;20032;-36
2021/10/31 07:13:57;;;;;;;23.05;10.70;;;;;;;;;;4914830;29;20108;-37
2021/10/31 07:16:22;;;;;;;21.95;10.38;;;;;;;;;;4915006;29;20028;-37
2021/10/31 07:18:48;;;;;;;27.63;9.88;;;;;;;;;;4914806;29;20042;-37
2021/10/31 07:21:14;;;;;;;22.73;8.23;;;;;;;;;;4914658;29;20032;-37
2021/10/31 07:23:40;;;;;;;22.67;11.07;;;;;;;;;;4914776;29;20024;-37
2021/10/31 07:26:07;;;;;;;27.92;11.55;;;;;;;;;;4914520;29;20381;-37
2021/10/31 07:28:32;;;;;;;23.27;9.82;;;;;;;;;;4929297;29;20035;-38
2021/10/31 07:30:59;;;;;;;22.80;9.88;;;;;;;;;;4914973;29;20031;-37
2021/10/31 07:33:25;;;;;;;23.48;9.48;;;;;;;;;;4914497;29;20415;-36
2021/10/31 07:35:52;;;;;;;22.52;10.77;;;;;;;;;;4914681;29;20053;-37
2021/10/31 07:38:18;;;;;;;22.58;9.43;;;;;;;;;;4914801;29;20036;-37
2021/10/31 07:40:44;;;;;;;27.63;10.55;;;;;;;;;;4914580;29;20541;-37
2021/10/31 07:43:10;;;;;;;20.73;10.05;;;;;;;;;;4914644;29;20024;-37
2021/10/31 07:45:36;;;;;;;25.35;11.15;;;;;;;;;;4917167;29;20036;-36
2021/10/31 07:48:03;;;;;;;21.30;11.35;;;;;;;;;;4918027;29;20022;-37
2021/10/31 07:50:34;;;;;;;23.15;10.52;;;;;;;;;;4918251;29;20131;-37
2021/10/31 07:53:01;;;;;;;19.05;9.65;;;;;;;;;;4918250;29;20084;-37
2021/10/31 07:55:30;;;;;;;20.38;9.35;;;;;;;;;;4918022;29;20040;-37
2021/10/31 07:57:57;;;;;;;20.33;10.48;;;;;;;;;;4917851;29;20028;-37
2021/10/31 08:00:23;;;;;;;17.88;8.85;;;;;;;;;;4916528;29;20392;-37
2021/10/31 08:02:48;;;;;;;22.08;10.50;;;;;;;;;;4917727;29;20024;-37
2021/10/31 08:05:14;;;;;;;22.17;10.07;;;;;;;;;;4917585;29;20114;-37
2021/10/31 08:07:41;;;;;;;16.98;8.98;;;;;;;;;;4917940;29;20540;-37
2021/10/31 08:10:08;;;;;;;21.35;10.63;;;;;;;;;;4916573;29;20030;-37
2021/10/31 08:12:34;;;;;;;21.70;9.23;;;;;;;;;;4917608;29;20590;-36
2021/10/31 08:15:00;;;;;;;18.23;8.88;;;;;;;;;;4916515;29;20039;-37
2021/10/31 08:17:26;;;;;;;17.92;9.27;;;;;;;;;;4917442;29;20024;-37
2021/10/31 08:19:51;;;;;;;20.48;10.00;;;;;;;;;;4917498;29;20404;-37
2021/10/31 08:22:17;;;;;;;16.50;8.85;;;;;;;;;;4917373;29;20020;-37
2021/10/31 08:24:43;;;;;;;16.73;9.30;;;;;;;;;;4917442;29;20024;-37
2021/10/31 08:27:08;;;;;;;22.42;9.45;;;;;;;;;;4917453;29;20520;-37
2021/10/31 08:29:34;;;;;;;18.75;9.52;;;;;;;;;;4917536;29;20040;-37
2021/10/31 08:32:00;;;;;;;16.65;9.43;;;;;;;;;;4917570;29;20028;-37
2021/10/31 08:34:26;;;;;;;19.60;9.60;;;;;;;;;;4917121;29;20024;-37
2021/10/31 08:36:51;;;;;;;21.50;9.75;;;;;;;;;;4917158;29;20076;-37
2021/10/31 08:39:17;;;;;;;16.05;8.90;;;;;;;;;;4917072;29;20036;-37
2021/10/31 08:41:43;;;;;;;15.85;8.73;;;;;;;;;;4917151;29;20655;-36
2021/10/31 08:44:08;;;;;;;16.17;8.73;;;;;;;;;;4916907;29;20040;-36
2021/10/31 08:46:34;;;;;;;21.77;10.05;;;;;;;;;;4916926;29;20031;-37
2021/10/31 08:49:00;;;;;;;17.58;8.43;;;;;;;;;;4917187;29;20040;-36
2021/10/31 08:51:26;;;;;;;19.80;9.00;;;;;;;;;;4916890;29;20125;-37
2021/10/31 08:53:52;;;;;;;16.17;8.77;;;;;;;;;;4917155;29;20036;-36
2021/10/31 08:56:18;;;;;;;19.45;10.23;;;;;;;;;;4916197;29;20423;-36
2021/10/31 08:58:44;;;;;;;14.63;9.00;;;;;;;;;;4916964;29;20051;-37
2021/10/31 09:01:10;;;;;;;17.92;8.85;;;;;;;;;;4915870;29;20463;-37
2021/10/31 09:03:36;;;;;;;19.95;8.50;;;;;;;;;;4916775;29;20035;-37
2021/10/31 09:06:02;;;;;;;21.10;9.82;;;;;;;;;;4916457;29;20056;-37
2021/10/31 09:08:27;;;;;;;20.75;9.65;;;;;;;;;;4916653;29;20559;-37
2021/10/31 09:10:53;;;;;;;18.65;9.75;;;;;;;;;;4916605;29;20411;-37
2021/10/31 09:13:19;;;;;;;18.60;9.40;;;;;;;;;;4916580;29;20114;-37
2021/10/31 09:15:47;;;;;;;24.60;10.85;;;;;;;;;;4916753;29;20024;-37
2021/10/31 09:18:13;;;;;;;22.88;10.63;;;;;;;;;;4916338;29;20479;-36
2021/10/31 09:20:38;;;;;;;18.38;9.98;;;;;;;;;;4916393;29;20181;-36
2021/10/31 09:23:05;;;;;;;16.17;8.95;;;;;;;;;;4916336;29;20043;-37
2021/10/31 09:25:30;;;;;;;22.35;10.65;;;;;;;;;;4916081;29;20028;-37
2021/10/31 09:27:56;;;;;;;18.75;10.10;;;;;;;;;;4916245;29;20568;-37
2021/10/31 09:30:23;;;;;;;21.35;10.25;;;;;;;;;;4916149;29;20047;-37
2021/10/31 09:32:49;;;;;;;19.95;9.85;;;;;;;;;;4916224;29;20035;-36
2021/10/31 09:35:16;;;;;;;17.70;9.35;;;;;;;;;;4915954;29;20020;-36
2021/10/31 09:37:42;;;;;;;22.08;10.57;;;;;;;;;;4916430;29;20039;-37
2021/10/31 09:40:08;;;;;;;19.75;10.30;;;;;;;;;;4916005;29;20547;-37
2021/10/31 09:42:34;;;;;;;15.48;9.93;;;;;;;;;;4915945;29;20032;-37
2021/10/31 09:44:59;;;;;;;22.95;10.55;;;;;;;;;;4915973;29;20021;-37
2021/10/31 09:47:25;;;;;;;17.58;9.68;;;;;;;;;;4915818;29;20048;-37
2021/10/31 09:49:51;;;;;;;20.23;9.32;;;;;;;;;;4915774;29;20456;-37
2021/10/31 09:52:17;;;;;;;20.15;10.45;;;;;;;;;;4916063;29;20107;-37
2021/10/31 09:54:43;;;;;;;18.67;9.98;;;;;;;;;;4915655;29;20391;-37
2021/10/31 09:57:08;;;;;;;22.80;9.93;;;;;;;;;;4915643;29;20039;-37
2021/10/31 09:59:39;;;;;;;22.25;11.85;;;;;;;;;;4915736;29;20024;-37
2021/10/31 10:04:34;;;;;;;18.77;8.88;;;;;;;;;;4915002;29;20412;-36
2021/10/31 10:07:01;;;;;;;23.52;9.95;;;;;;;;;;4915222;29;20389;-37
2021/10/31 10:09:29;;;;;;;23.08;9.90;;;;;;;;;;4914882;29;20043;-37
2021/10/31 10:11:56;;;;;;;16.13;9.50;;;;;;;;;;4915503;29;20512;-36
2021/10/31 10:14:25;;;;;;;19.73;10.00;;;;;;;;;;4915379;29;20020;-37
2021/10/31 10:16:54;;;;;;;20.70;10.15;;;;;;;;;;4915391;29;20447;-37
2021/10/31 10:19:28;;;;;;;22.98;10.50;;;;;;;;;;4915251;29;20035;-38
2021/10/31 10:21:53;;;;;;;27.70;10.63;;;;;;;;;;4915401;29;20032;-37
2021/10/31 10:24:19;;;;;;;19.33;11.00;;;;;;;;;;4915157;29;20019;-37
2021/10/31 10:26:45;;;;;;;20.92;10.30;;;;;;;;;;4915302;29;20373;-36
2021/10/31 10:29:14;;;;;;;21.52;10.32;;;;;;;;;;4915210;29;20020;-37
2021/10/31 10:31:40;;;;;;;18.77;9.65;;;;;;;;;;4915202;29;20127;-37
2021/10/31 10:34:06;;;;;;;25.55;12.02;;;;;;;;;;4915256;29;20428;-36
2021/10/31 10:36:39;;;;;;;22.25;10.95;;;;;;;;;;4915338;29;20032;-37
2021/10/31 10:39:06;;;;;;;23.85;11.02;;;;;;;;;;4915166;29;20515;-37
2021/10/31 10:41:41;;;;;;;25.58;12.45;;;;;;;;;;4915369;29;20123;-37
2021/10/31 10:44:20;;;;;;;23.35;10.98;;;;;;;;;;4915376;29;20153;-37
2021/10/31 10:46:46;;;;;;;26.65;11.52;;;;;;;;;;4915065;29;20067;-37
2021/10/31 10:49:16;;;;;;;24.27;11.20;;;;;;;;;;4915267;29;20020;-37
2021/10/31 10:51:43;;;;;;;25.20;10.82;;;;;;;;;;4914972;29;20055;-36
2021/10/31 10:54:15;;;;;;;24.05;11.10;;;;;;;;;;4915199;29;20164;-37
2021/10/31 10:57:00;;;;;;;24.30;12.07;;;;;;;;;;4915046;29;20036;-37
2021/10/31 10:59:26;;;;;;;23.33;10.30;;;;;;;;;;4915125;29;20263;-37
2021/10/31 11:02:10;;;;;;;22.67;10.20;;;;;;;;;;4914849;29;20115;-36
2021/10/31 11:04:37;;;;;;;21.20;9.32;;;;;;;;;;4914920;29;20046;-36
2021/10/31 11:07:03;;;;;;;25.30;9.93;;;;;;;;;;4914560;29;20111;-37
2021/10/31 11:09:44;;;;;;;19.40;10.30;;;;;;;;;;4914808;29;20025;-37
2021/10/31 11:12:24;;;;;;;23.83;12.00;;;;;;;;;;4915013;29;20060;-37
2021/10/31 11:14:50;;;;;;;24.27;10.50;;;;;;;;;;4914759;29;20039;-37
2021/10/31 11:17:17;;;;;;;21.27;12.02;;;;;;;;;;4914747;29;20017;-37
2021/10/31 11:19:43;;;;;;;21.27;11.00;;;;;;;;;;4916320;29;20445;-37
2021/10/31 11:22:08;;;;;;;19.95;11.82;;;;;;;;;;4918295;29;20119;-37
2021/10/31 11:24:35;;;;;;;21.52;11.30;;;;;;;;;;4918364;29;20111;-37
2021/10/31 11:27:01;;;;;;;26.65;11.02;;;;;;;;;;4918411;29;20031;-37
2021/10/31 11:29:31;;;;;;;22.10;11.82;;;;;;;;;;4918501;29;20039;-42
2021/10/31 11:31:57;;;;;;;18.33;10.80;;;;;;;;;;4932989;29;20032;-36
2021/10/31 11:34:24;;;;;;;20.73;10.77;;;;;;;;;;4918354;29;20444;-37
2021/10/31 11:36:50;;;;;;;25.20;11.88;;;;;;;;;;4918209;29;20080;-37
2021/10/31 11:39:16;;;;;;;24.33;12.00;;;;;;;;;;4918408;29;20032;-37
2021/10/31 11:41:41;;;;;;;29.38;12.20;;;;;;;;;;4918092;29;20028;-37
2021/10/31 11:44:07;;;;;;;24.42;10.50;;;;;;;;;;4916892;29;20535;-37
2021/10/31 11:46:40;;;;;;;24.88;13.13;;;;;;;;;;4917908;29;20527;-37
2021/10/31 11:49:05;;;;;;;27.70;12.07;;;;;;;;;;4917989;29;20071;-37
2021/10/31 11:51:41;;;;;;;26.70;12.52;;;;;;;;;;4917919;29;20086;-38
2021/10/31 11:54:12;;;;;;;23.20;11.80;;;;;;;;;;4917813;29;20036;-37
2021/10/31 11:56:59;;;;;;;26.70;12.77;;;;;;;;;;4917848;29;20058;-37
2021/10/31 11:59:24;;;;;;;26.17;11.65;;;;;;;;;;4917610;29;20048;-37
2021/10/31 12:01:51;;;;;;;23.17;11.60;;;;;;;;;;4917960;29;20054;-37
2021/10/31 12:04:21;;;;;;;19.98;10.43;;;;;;;;;;4917692;29;20032;-37
2021/10/31 12:06:48;;;;;;;20.80;10.55;;;;;;;;;;4917586;29;20052;-37
2021/10/31 12:09:18;;;;;;;23.10;11.00;;;;;;;;;;4917893;29;20395;-37
2021/10/31 12:11:44;;;;;;;18.30;9.48;;;;;;;;;;4917651;29;20083;-38
2021/10/31 12:14:10;;;;;;;23.02;12.50;;;;;;;;;;4917491;29;20024;-37
2021/10/31 12:16:52;;;;;;;30.25;12.85;;;;;;;;;;4917640;29;20120;-37
2021/10/31 12:19:23;;;;;;;18.92;10.65;;;;;;;;;;4917701;29;20071;-37
2021/10/31 12:22:04;;;;;;;24.60;11.45;;;;;;;;;;4917768;29;20133;-37
2021/10/31 12:24:47;;;;;;;28.38;14.63;;;;;;;;;;4917240;29;20039;-37
2021/10/31 12:27:17;;;;;;;22.00;12.32;;;;;;;;;;4917167;29;20037;-37
2021/10/31 12:29:48;;;;;;;32.45;13.68;;;;;;;;;;4917412;29;20028;-37
2021/10/31 12:32:19;;;;;;;40.30;15.90;;;;;;;;;;4899299;29;20108;-37
2021/10/31 12:34:46;;;;;;;28.30;13.55;;;;;;;;;;4917490;29;20115;-37
2021/10/31 12:37:24;;;;;;;41.15;15.75;;;;;;;;;;4917381;29;20032;-37
2021/10/31 12:40:09;;;;;;;28.33;14.52;;;;;;;;;;4917203;29;20538;-37
2021/10/31 12:42:59;;;;;;;28.40;12.90;;;;;;;;;;4900614;29;20036;-37
2021/10/31 12:45:26;;;;;;;32.38;15.02;;;;;;;;;;4916911;29;20107;-37
2021/10/31 12:48:07;;;;;;;29.17;15.50;;;;;;;;;;4916849;29;20034;-37
2021/10/31 12:50:33;;;;;;;30.65;13.82;;;;;;;;;;4917378;29;20147;-37
2021/10/31 12:53:09;;;;;;;24.73;12.88;;;;;;;;;;4916851;29;20563;-37
2021/10/31 12:55:36;;;;;;;25.15;12.15;;;;;;;;;;4916815;29;20091;-38
2021/10/31 12:58:08;;;;;;;30.58;14.27;;;;;;;;;;4916810;29;20043;-37
2021/10/31 13:00:35;;;;;;;29.05;12.05;;;;;;;;;;4916702;29;20024;-37
2021/10/31 13:03:02;;;;;;;28.05;12.68;;;;;;;;;;4916931;29;20372;-37
2021/10/31 13:05:31;;;;;;;31.75;14.27;;;;;;;;;;4916437;29;20036;-37
2021/10/31 13:07:57;;;;;;;24.75;13.20;;;;;;;;;;4916499;29;20558;-36
2021/10/31 13:10:33;;;;;;;24.02;13.52;;;;;;;;;;4916605;29;20028;-37
2021/10/31 13:13:04;;;;;;;25.50;12.18;;;;;;;;;;4916454;29;20040;-37
2021/10/31 13:15:32;;;;;;;23.10;10.98;;;;;;;;;;4916603;29;20442;-37
2021/10/31 13:17:59;;;;;;;27.42;13.85;;;;;;;;;;4916432;29;20066;-37
2021/10/31 13:20:26;;;;;;;24.00;12.38;;;;;;;;;;4916284;29;20031;-37
2021/10/31 13:23:02;;;;;;;25.48;12.90;;;;;;;;;;4916601;29;20107;-37
2021/10/31 13:25:29;;;;;;;20.35;10.05;;;;;;;;;;4916187;29;20032;-37
2021/10/31 13:27:59;;;;;;;26.80;12.32;;;;;;;;;;4916215;29;20476;-37
2021/10/31 13:30:24;;;;;;;32.35;15.07;;;;;;;;;;4916090;29;20484;-37
2021/10/31 13:32:51;;;;;;;31.20;14.38;;;;;;;;;;4916224;29;20081;-38
2021/10/31 13:35:17;;;;;;;27.40;14.50;;;;;;;;;;4914836;29;20388;-37
2021/10/31 13:37:43;;;;;;;30.67;14.60;;;;;;;;;;4916117;29;20028;-37
2021/10/31 13:40:10;;;;;;;36.45;15.65;;;;;;;;;;4916127;29;20035;-37
2021/10/31 13:42:37;;;;;;;23.40;12.27;;;;;;;;;;4915732;29;20049;-37
2021/10/31 13:45:23;;;;;;;21.73;11.82;;;;;;;;;;4914846;29;20043;-37
2021/10/31 13:47:56;;;;;;;32.72;13.45;;;;;;;;;;4930060;29;20067;-37
2021/10/31 13:50:23;;;;;;;33.60;16.13;;;;;;;;;;4916059;29;20392;-37
2021/10/31 13:52:56;;;;;;;30.38;14.10;;;;;;;;;;4915864;29;20079;-37
2021/10/31 13:55:22;;;;;;;23.83;13.10;;;;;;;;;;4915778;29;20460;-37
2021/10/31 13:57:49;;;;;;;30.77;13.48;;;;;;;;;;4915739;29;20419;-37
2021/10/31 14:00:17;;;;;;;31.10;14.63;;;;;;;;;;4915935;29;20089;-36
2021/10/31 14:02:43;;;;;;;30.15;13.65;;;;;;;;;;4915943;29;20391;-37
2021/10/31 14:05:12;;;;;;;24.40;12.85;;;;;;;;;;4930202;29;20024;-38
2021/10/31 14:07:46;;;;;;;19.83;10.63;;;;;;;;;;4915864;29;20139;-37
2021/10/31 14:10:14;;;;;;;26.75;12.10;;;;;;;;;;4915475;29;20376;-37
2021/10/31 14:12:40;;;;;;;21.05;12.27;;;;;;;;;;4915548;29;20024;-37
2021/10/31 14:15:08;;;;;;;26.05;11.93;;;;;;;;;;4915418;29;20024;-37
2021/10/31 14:17:35;;;;;;;22.88;11.13;;;;;;;;;;4915322;29;20535;-43
2021/10/31 14:20:01;;;;;;;22.52;12.88;;;;;;;;;;4915269;29;20043;-37
2021/10/31 14:22:41;;;;;;;28.88;11.90;;;;;;;;;;4914166;29;20020;-37
2021/10/31 14:25:08;;;;;;;23.58;13.18;;;;;;;;;;4915337;29;20088;-37
2021/10/31 14:27:38;;;;;;;19.13;11.25;;;;;;;;;;4915409;29;20040;-37
2021/10/31 14:30:13;;;;;;;30.42;13.75;;;;;;;;;;4915367;29;20111;-37